sensor_id;sensor_type;location;lat;lon;timestamp;temperature;humidity
30097;DHT22;16915;51.466;3.610;2022-12-07T00:00:16;4.90;99.90
30097;DHT22;16915;51.466;3.610;2022-12-07T00:02:42;4.80;99.90
30097;DHT22;16915;51.466;3.610;2022-12-07T00:05:07;4.70;99.90
30097;DHT22;16915;51.466;3.610;2022-12-07T00:07:33;4.60;99.90
30097;DHT22;16915;51.466;3.610;2022-12-07T00:09:58;4.60;99.90
30097;DHT22;16915;51.466;3.610;2022-12-07T00:12:24;4.60;99.90
30097;DHT22;16915;51.466;3.610;2022-12-07T00:14:49;4.70;99.90
30097;DHT22;16915;51.466;3.610;2022-12-07T00:17:15;4.70;99.90
30097;DHT22;16915;51.466;3.610;2022-12-07T00:19:41;4.80;99.90
30097;DHT22;16915;51.466;3.610;2022-12-07T00:22:06;4.80;99.90
30097;DHT22;16915;51.466;3.610;2022-12-07T00:24:32;4.90;99.90
30097;DHT22;16915;51.466;3.610;2022-12-07T00:26:57;4.90;99.90
30097;DHT22;16915;51.466;3.610;2022-12-07T00:29:23;5.00;99.90
30097;DHT22;16915;51.466;3.610;2022-12-07T00:31:49;4.90;99.90
30097;DHT22;16915;51.466;3.610;2022-12-07T00:34:18;4.80;99.90
30097;DHT22;16915;51.466;3.610;2022-12-07T00:36:44;4.70;99.90
30097;DHT22;16915;51.466;3.610;2022-12-07T00:39:10;4.50;99.90
30097;DHT22;16915;51.466;3.610;2022-12-07T00:41:35;4.40;99.90
30097;DHT22;16915;51.466;3.610;2022-12-07T00:44:02;4.20;99.90
30097;DHT22;16915;51.466;3.610;2022-12-07T00:46:27;4.10;99.90
30097;DHT22;16915;51.466;3.610;2022-12-07T00:48:53;3.90;99.90
30097;DHT22;16915;51.466;3.610;2022-12-07T00:51:19;3.80;99.90
30097;DHT22;16915;51.466;3.610;2022-12-07T00:53:45;3.80;99.90
30097;DHT22;16915;51.466;3.610;2022-12-07T00:56:11;3.70;99.90
30097;DHT22;16915;51.466;3.610;2022-12-07T00:58:37;3.60;99.90
30097;DHT22;16915;51.466;3.610;2022-12-07T01:01:04;3.50;99.90
30097;DHT22;16915;51.466;3.610;2022-12-07T01:03:29;3.60;99.90
30097;DHT22;16915;51.466;3.610;2022-12-07T01:05:55;3.50;99.90
30097;DHT22;16915;51.466;3.610;2022-12-07T01:08:22;3.50;99.90
30097;DHT22;16915;51.466;3.610;2022-12-07T01:10:47;3.50;99.90
30097;DHT22;16915;51.466;3.610;2022-12-07T01:13:13;3.60;99.90
30097;DHT22;16915;51.466;3.610;2022-12-07T01:15:42;3.60;99.90
30097;DHT22;16915;51.466;3.610;2022-12-07T01:18:08;3.70;99.90
30097;DHT22;16915;51.466;3.610;2022-12-07T01:20:33;3.70;99.90
30097;DHT22;16915;51.466;3.610;2022-12-07T01:22:59;3.80;99.90
30097;DHT22;16915;51.466;3.610;2022-12-07T01:25:24;3.80;99.90
30097;DHT22;16915;51.466;3.610;2022-12-07T01:27:50;3.80;99.90
30097;DHT22;16915;51.466;3.610;2022-12-07T01:30:15;3.80;99.90
30097;DHT22;16915;51.466;3.610;2022-12-07T01:32:41;3.70;99.90
30097;DHT22;16915;51.466;3.610;2022-12-07T01:35:06;3.60;99.90
30097;DHT22;16915;51.466;3.610;2022-12-07T01:37:36;3.50;99.90
30097;DHT22;16915;51.466;3.610;2022-12-07T01:40:02;3.40;99.90
30097;DHT22;16915;51.466;3.610;2022-12-07T01:42:28;3.30;99.90
30097;DHT22;16915;51.466;3.610;2022-12-07T01:47:39;3.20;99.90
30097;DHT22;16915;51.466;3.610;2022-12-07T01:50:04;3.20;99.90
30097;DHT22;16915;51.466;3.610;2022-12-07T01:52:31;3.10;99.90
30097;DHT22;16915;51.466;3.610;2022-12-07T01:54:59;3.10;99.90
30097;DHT22;16915;51.466;3.610;2022-12-07T01:57:25;3.10;99.90
30097;DHT22;16915;51.466;3.610;2022-12-07T01:59:51;3.00;99.90
30097;DHT22;16915;51.466;3.610;2022-12-07T02:02:18;3.10;99.90
30097;DHT22;16915;51.466;3.610;2022-12-07T02:04:44;3.10;99.90
30097;DHT22;16915;51.466;3.610;2022-12-07T02:07:10;3.20;99.90
30097;DHT22;16915;51.466;3.610;2022-12-07T02:09:35;3.30;99.90
30097;DHT22;16915;51.466;3.610;2022-12-07T02:12:01;3.40;99.90
30097;DHT22;16915;51.466;3.610;2022-12-07T02:14:27;3.50;99.90
30097;DHT22;16915;51.466;3.610;2022-12-07T02:17:13;3.60;99.90
30097;DHT22;16915;51.466;3.610;2022-12-07T02:19:51;3.70;99.90
30097;DHT22;16915;51.466;3.610;2022-12-07T02:22:30;3.90;99.90
30097;DHT22;16915;51.466;3.610;2022-12-07T02:30:33;4.40;99.90
30097;DHT22;16915;51.466;3.610;2022-12-07T02:35:48;4.60;99.90
30097;DHT22;16915;51.466;3.610;2022-12-07T02:38:35;4.60;99.90
30097;DHT22;16915;51.466;3.610;2022-12-07T02:41:10;4.60;99.90
30097;DHT22;16915;51.466;3.610;2022-12-07T02:43:50;4.60;99.90
30097;DHT22;16915;51.466;3.610;2022-12-07T02:46:18;4.70;99.90
30097;DHT22;16915;51.466;3.610;2022-12-07T02:48:45;4.70;99.90
30097;DHT22;16915;51.466;3.610;2022-12-07T02:51:10;4.70;99.90
30097;DHT22;16915;51.466;3.610;2022-12-07T02:53:42;4.60;99.90
30097;DHT22;16915;51.466;3.610;2022-12-07T03:04:24;4.10;99.90
30097;DHT22;16915;51.466;3.610;2022-12-07T03:07:04;3.90;99.90
30097;DHT22;16915;51.466;3.610;2022-12-07T03:09:51;3.90;99.90
30097;DHT22;16915;51.466;3.610;2022-12-07T03:12:18;3.90;99.90
30097;DHT22;16915;51.466;3.610;2022-12-07T03:14:53;3.90;99.90
30097;DHT22;16915;51.466;3.610;2022-12-07T03:17:22;3.80;99.90
30097;DHT22;16915;51.466;3.610;2022-12-07T03:19:49;3.70;99.90
30097;DHT22;16915;51.466;3.610;2022-12-07T03:22:16;3.70;99.90
30097;DHT22;16915;51.466;3.610;2022-12-07T03:24:58;3.60;99.90
30097;DHT22;16915;51.466;3.610;2022-12-07T03:27:27;3.50;99.90
30097;DHT22;16915;51.466;3.610;2022-12-07T03:30:00;3.50;99.90
30097;DHT22;16915;51.466;3.610;2022-12-07T03:34:53;3.50;99.90
30097;DHT22;16915;51.466;3.610;2022-12-07T03:37:36;3.50;99.90
30097;DHT22;16915;51.466;3.610;2022-12-07T03:42:32;3.50;99.90
30097;DHT22;16915;51.466;3.610;2022-12-07T03:44:58;3.60;99.90
30097;DHT22;16915;51.466;3.610;2022-12-07T03:47:29;3.70;99.90
30097;DHT22;16915;51.466;3.610;2022-12-07T03:49:58;4.00;99.90
30097;DHT22;16915;51.466;3.610;2022-12-07T03:52:39;4.10;99.90
30097;DHT22;16915;51.466;3.610;2022-12-07T03:55:11;4.20;99.90
30097;DHT22;16915;51.466;3.610;2022-12-07T03:57:40;4.20;99.90
30097;DHT22;16915;51.466;3.610;2022-12-07T04:00:07;4.20;99.90
30097;DHT22;16915;51.466;3.610;2022-12-07T04:02:33;4.20;99.90
30097;DHT22;16915;51.466;3.610;2022-12-07T04:04:58;4.20;99.90
30097;DHT22;16915;51.466;3.610;2022-12-07T04:07:24;4.20;99.90
30097;DHT22;16915;51.466;3.610;2022-12-07T04:09:50;4.10;99.90
30097;DHT22;16915;51.466;3.610;2022-12-07T04:12:16;4.20;99.90
30097;DHT22;16915;51.466;3.610;2022-12-07T04:14:41;4.10;99.90
30097;DHT22;16915;51.466;3.610;2022-12-07T04:17:06;4.00;99.90
30097;DHT22;16915;51.466;3.610;2022-12-07T04:19:32;4.00;99.90
30097;DHT22;16915;51.466;3.610;2022-12-07T04:21:59;3.90;99.90
30097;DHT22;16915;51.466;3.610;2022-12-07T04:24:25;3.90;99.90
30097;DHT22;16915;51.466;3.610;2022-12-07T04:26:50;4.00;99.90
30097;DHT22;16915;51.466;3.610;2022-12-07T04:29:16;4.00;99.90
30097;DHT22;16915;51.466;3.610;2022-12-07T04:31:42;4.10;99.90
30097;DHT22;16915;51.466;3.610;2022-12-07T04:34:07;4.20;99.90
30097;DHT22;16915;51.466;3.610;2022-12-07T04:36:33;4.20;99.90
30097;DHT22;16915;51.466;3.610;2022-12-07T04:38:59;4.20;99.90
30097;DHT22;16915;51.466;3.610;2022-12-07T04:41:25;4.20;99.90
30097;DHT22;16915;51.466;3.610;2022-12-07T04:43:57;4.10;99.90
30097;DHT22;16915;51.466;3.610;2022-12-07T04:46:23;4.20;99.90
30097;DHT22;16915;51.466;3.610;2022-12-07T04:48:49;4.10;99.90
30097;DHT22;16915;51.466;3.610;2022-12-07T04:51:15;4.10;99.90
30097;DHT22;16915;51.466;3.610;2022-12-07T04:53:43;4.10;99.90
30097;DHT22;16915;51.466;3.610;2022-12-07T04:56:08;4.00;99.90
30097;DHT22;16915;51.466;3.610;2022-12-07T04:58:34;4.00;99.90
30097;DHT22;16915;51.466;3.610;2022-12-07T05:00:59;4.00;99.90
30097;DHT22;16915;51.466;3.610;2022-12-07T05:03:25;4.00;99.90
30097;DHT22;16915;51.466;3.610;2022-12-07T05:05:50;4.00;99.90
30097;DHT22;16915;51.466;3.610;2022-12-07T05:08:16;4.00;99.90
30097;DHT22;16915;51.466;3.610;2022-12-07T05:10:41;4.10;99.90
30097;DHT22;16915;51.466;3.610;2022-12-07T05:13:07;4.10;99.90
30097;DHT22;16915;51.466;3.610;2022-12-07T05:15:32;4.20;99.90
30097;DHT22;16915;51.466;3.610;2022-12-07T05:17:57;4.20;99.90
30097;DHT22;16915;51.466;3.610;2022-12-07T05:20:23;4.20;99.90
30097;DHT22;16915;51.466;3.610;2022-12-07T05:22:48;4.30;99.90
30097;DHT22;16915;51.466;3.610;2022-12-07T05:25:14;4.30;99.90
30097;DHT22;16915;51.466;3.610;2022-12-07T05:27:39;4.40;99.90
30097;DHT22;16915;51.466;3.610;2022-12-07T05:30:05;4.40;99.90
30097;DHT22;16915;51.466;3.610;2022-12-07T05:32:31;4.30;99.90
30097;DHT22;16915;51.466;3.610;2022-12-07T05:34:56;4.20;99.90
30097;DHT22;16915;51.466;3.610;2022-12-07T05:37:22;4.20;99.90
30097;DHT22;16915;51.466;3.610;2022-12-07T05:39:47;4.20;99.90
30097;DHT22;16915;51.466;3.610;2022-12-07T05:42:13;4.20;99.90
30097;DHT22;16915;51.466;3.610;2022-12-07T05:44:39;4.20;99.90
30097;DHT22;16915;51.466;3.610;2022-12-07T05:47:04;4.20;99.90
30097;DHT22;16915;51.466;3.610;2022-12-07T05:49:30;4.10;99.90
30097;DHT22;16915;51.466;3.610;2022-12-07T05:51:55;4.00;99.90
30097;DHT22;16915;51.466;3.610;2022-12-07T05:54:21;3.80;99.90
30097;DHT22;16915;51.466;3.610;2022-12-07T05:56:47;3.70;99.90
30097;DHT22;16915;51.466;3.610;2022-12-07T05:59:12;3.60;99.90
30097;DHT22;16915;51.466;3.610;2022-12-07T06:01:57;3.60;99.90
30097;DHT22;16915;51.466;3.610;2022-12-07T06:04:23;3.60;99.90
30097;DHT22;16915;51.466;3.610;2022-12-07T06:06:51;3.50;99.90
30097;DHT22;16915;51.466;3.610;2022-12-07T06:09:17;3.50;99.90
30097;DHT22;16915;51.466;3.610;2022-12-07T06:11:43;3.50;99.90
30097;DHT22;16915;51.466;3.610;2022-12-07T06:14:28;3.60;99.90
30097;DHT22;16915;51.466;3.610;2022-12-07T06:16:54;3.70;99.90
30097;DHT22;16915;51.466;3.610;2022-12-07T06:19:20;3.80;99.90
30097;DHT22;16915;51.466;3.610;2022-12-07T06:21:45;3.90;99.90
30097;DHT22;16915;51.466;3.610;2022-12-07T06:24:11;4.00;99.90
30097;DHT22;16915;51.466;3.610;2022-12-07T06:26:36;4.00;99.90
30097;DHT22;16915;51.466;3.610;2022-12-07T06:29:02;3.90;99.90
30097;DHT22;16915;51.466;3.610;2022-12-07T06:31:27;3.90;99.90
30097;DHT22;16915;51.466;3.610;2022-12-07T06:33:59;3.90;99.90
30097;DHT22;16915;51.466;3.610;2022-12-07T06:36:25;3.90;99.90
30097;DHT22;16915;51.466;3.610;2022-12-07T06:38:51;3.90;99.90
30097;DHT22;16915;51.466;3.610;2022-12-07T06:41:17;3.90;99.90
30097;DHT22;16915;51.466;3.610;2022-12-07T06:43:42;3.90;99.90
30097;DHT22;16915;51.466;3.610;2022-12-07T06:46:08;3.90;99.90
30097;DHT22;16915;51.466;3.610;2022-12-07T06:48:33;4.00;99.90
30097;DHT22;16915;51.466;3.610;2022-12-07T06:50:59;3.90;99.90
30097;DHT22;16915;51.466;3.610;2022-12-07T06:53:24;3.90;99.90
30097;DHT22;16915;51.466;3.610;2022-12-07T06:55:50;3.90;99.90
30097;DHT22;16915;51.466;3.610;2022-12-07T06:58:16;3.90;99.90
30097;DHT22;16915;51.466;3.610;2022-12-07T07:00:41;3.90;99.90
30097;DHT22;16915;51.466;3.610;2022-12-07T07:03:07;3.90;99.90
30097;DHT22;16915;51.466;3.610;2022-12-07T07:05:32;3.80;99.90
30097;DHT22;16915;51.466;3.610;2022-12-07T07:07:58;3.80;99.90
30097;DHT22;16915;51.466;3.610;2022-12-07T07:10:23;3.90;99.90
30097;DHT22;16915;51.466;3.610;2022-12-07T07:12:49;4.00;99.90
30097;DHT22;16915;51.466;3.610;2022-12-07T07:15:14;4.10;99.90
30097;DHT22;16915;51.466;3.610;2022-12-07T07:17:40;4.10;99.90
30097;DHT22;16915;51.466;3.610;2022-12-07T07:20:05;4.10;99.90
30097;DHT22;16915;51.466;3.610;2022-12-07T07:22:31;4.10;99.90
30097;DHT22;16915;51.466;3.610;2022-12-07T07:24:57;4.10;99.90
30097;DHT22;16915;51.466;3.610;2022-12-07T07:27:22;4.00;99.90
30097;DHT22;16915;51.466;3.610;2022-12-07T07:29:47;4.00;99.90
30097;DHT22;16915;51.466;3.610;2022-12-07T07:32:13;4.00;99.90
30097;DHT22;16915;51.466;3.610;2022-12-07T07:34:39;4.00;99.90
30097;DHT22;16915;51.466;3.610;2022-12-07T07:37:04;4.00;99.90
30097;DHT22;16915;51.466;3.610;2022-12-07T07:39:30;4.00;99.90
30097;DHT22;16915;51.466;3.610;2022-12-07T07:41:55;4.00;99.90
30097;DHT22;16915;51.466;3.610;2022-12-07T07:44:21;4.10;99.90
30097;DHT22;16915;51.466;3.610;2022-12-07T07:46:47;4.20;99.90
30097;DHT22;16915;51.466;3.610;2022-12-07T07:49:12;4.30;99.90
30097;DHT22;16915;51.466;3.610;2022-12-07T07:51:37;4.30;99.90
30097;DHT22;16915;51.466;3.610;2022-12-07T07:54:03;4.30;99.90
30097;DHT22;16915;51.466;3.610;2022-12-07T07:56:28;4.20;99.90
30097;DHT22;16915;51.466;3.610;2022-12-07T07:58:54;4.10;99.90
30097;DHT22;16915;51.466;3.610;2022-12-07T08:01:19;4.10;99.90
30097;DHT22;16915;51.466;3.610;2022-12-07T08:03:48;4.10;99.90
30097;DHT22;16915;51.466;3.610;2022-12-07T08:06:14;4.30;99.90
30097;DHT22;16915;51.466;3.610;2022-12-07T08:08:40;4.40;99.90
30097;DHT22;16915;51.466;3.610;2022-12-07T08:11:06;4.60;99.90
30097;DHT22;16915;51.466;3.610;2022-12-07T08:13:32;4.70;99.90
30097;DHT22;16915;51.466;3.610;2022-12-07T08:15:57;4.80;99.90
30097;DHT22;16915;51.466;3.610;2022-12-07T08:18:23;4.80;99.90
30097;DHT22;16915;51.466;3.610;2022-12-07T08:20:48;4.80;99.90
30097;DHT22;16915;51.466;3.610;2022-12-07T08:23:14;4.70;99.90
30097;DHT22;16915;51.466;3.610;2022-12-07T08:25:39;4.60;99.90
30097;DHT22;16915;51.466;3.610;2022-12-07T08:28:05;4.70;99.90
30097;DHT22;16915;51.466;3.610;2022-12-07T08:30:31;4.60;99.90
30097;DHT22;16915;51.466;3.610;2022-12-07T08:32:57;4.60;99.90
30097;DHT22;16915;51.466;3.610;2022-12-07T08:35:22;4.60;99.90
30097;DHT22;16915;51.466;3.610;2022-12-07T08:37:48;4.50;99.90
30097;DHT22;16915;51.466;3.610;2022-12-07T08:40:14;4.40;99.90
30097;DHT22;16915;51.466;3.610;2022-12-07T08:42:43;4.30;99.90
30097;DHT22;16915;51.466;3.610;2022-12-07T08:45:10;4.20;99.90
30097;DHT22;16915;51.466;3.610;2022-12-07T08:47:37;4.10;99.90
30097;DHT22;16915;51.466;3.610;2022-12-07T08:50:04;4.10;99.90
30097;DHT22;16915;51.466;3.610;2022-12-07T08:52:31;4.00;99.90
30097;DHT22;16915;51.466;3.610;2022-12-07T08:54:57;4.10;99.90
30097;DHT22;16915;51.466;3.610;2022-12-07T08:57:23;4.00;99.90
30097;DHT22;16915;51.466;3.610;2022-12-07T08:59:49;4.10;99.90
30097;DHT22;16915;51.466;3.610;2022-12-07T09:02:14;4.10;99.90
30097;DHT22;16915;51.466;3.610;2022-12-07T09:04:40;4.10;99.90
30097;DHT22;16915;51.466;3.610;2022-12-07T09:07:05;4.20;99.90
30097;DHT22;16915;51.466;3.610;2022-12-07T09:09:31;4.30;99.90
30097;DHT22;16915;51.466;3.610;2022-12-07T09:11:57;4.50;99.90
30097;DHT22;16915;51.466;3.610;2022-12-07T09:14:22;4.70;99.90
30097;DHT22;16915;51.466;3.610;2022-12-07T09:16:48;4.90;99.90
30097;DHT22;16915;51.466;3.610;2022-12-07T09:19:13;5.00;99.90
30097;DHT22;16915;51.466;3.610;2022-12-07T09:21:39;5.10;99.90
30097;DHT22;16915;51.466;3.610;2022-12-07T09:24:04;5.30;99.90
30097;DHT22;16915;51.466;3.610;2022-12-07T09:26:30;5.40;99.90
30097;DHT22;16915;51.466;3.610;2022-12-07T09:28:56;5.50;99.90
30097;DHT22;16915;51.466;3.610;2022-12-07T09:31:21;5.70;99.90
30097;DHT22;16915;51.466;3.610;2022-12-07T09:33:47;5.90;99.90
30097;DHT22;16915;51.466;3.610;2022-12-07T09:36:17;6.00;99.90
30097;DHT22;16915;51.466;3.610;2022-12-07T09:38:43;6.10;99.90
30097;DHT22;16915;51.466;3.610;2022-12-07T09:41:08;6.20;99.90
30097;DHT22;16915;51.466;3.610;2022-12-07T09:43:34;6.10;99.90
30097;DHT22;16915;51.466;3.610;2022-12-07T09:46:00;6.20;99.90
30097;DHT22;16915;51.466;3.610;2022-12-07T09:48:33;6.10;99.90
30097;DHT22;16915;51.466;3.610;2022-12-07T09:51:01;6.10;99.90
30097;DHT22;16915;51.466;3.610;2022-12-07T09:53:29;6.00;99.90
30097;DHT22;16915;51.466;3.610;2022-12-07T09:55:56;6.00;99.90
30097;DHT22;16915;51.466;3.610;2022-12-07T09:58:22;5.90;99.90
30097;DHT22;16915;51.466;3.610;2022-12-07T10:00:49;5.90;99.90
30097;DHT22;16915;51.466;3.610;2022-12-07T10:03:15;5.90;99.90
30097;DHT22;16915;51.466;3.610;2022-12-07T10:05:42;6.00;99.90
30097;DHT22;16915;51.466;3.610;2022-12-07T10:08:12;6.00;99.90
30097;DHT22;16915;51.466;3.610;2022-12-07T10:10:38;5.90;99.90
30097;DHT22;16915;51.466;3.610;2022-12-07T10:21:01;5.80;99.90
30097;DHT22;16915;51.466;3.610;2022-12-07T10:23:28;5.90;99.90
30097;DHT22;16915;51.466;3.610;2022-12-07T10:25:54;6.00;99.90
30097;DHT22;16915;51.466;3.610;2022-12-07T10:28:20;6.00;99.90
30097;DHT22;16915;51.466;3.610;2022-12-07T10:33:54;5.90;99.90
30097;DHT22;16915;51.466;3.610;2022-12-07T10:36:25;5.90;99.90
30097;DHT22;16915;51.466;3.610;2022-12-07T10:41:35;5.90;99.90
30097;DHT22;16915;51.466;3.610;2022-12-07T10:44:01;5.90;99.90
30097;DHT22;16915;51.466;3.610;2022-12-07T10:51:52;5.80;99.90
30097;DHT22;16915;51.466;3.610;2022-12-07T11:05:10;6.00;99.90
30097;DHT22;16915;51.466;3.610;2022-12-07T11:10:29;6.20;99.90
30097;DHT22;16915;51.466;3.610;2022-12-07T11:12:59;6.50;99.90
30097;DHT22;16915;51.466;3.610;2022-12-07T11:20:55;7.40;99.90
30097;DHT22;16915;51.466;3.610;2022-12-07T11:23:33;7.80;99.90
30097;DHT22;16915;51.466;3.610;2022-12-07T11:26:06;8.00;99.90
30097;DHT22;16915;51.466;3.610;2022-12-07T11:33:34;7.80;99.90
30097;DHT22;16915;51.466;3.610;2022-12-07T11:38:50;7.30;99.90
30097;DHT22;16915;51.466;3.610;2022-12-07T11:41:12;7.20;99.90
30097;DHT22;16915;51.466;3.610;2022-12-07T11:46:43;6.90;99.90
30097;DHT22;16915;51.466;3.610;2022-12-07T11:49:19;6.80;99.90
30097;DHT22;16915;51.466;3.610;2022-12-07T11:51:46;7.10;99.90
30097;DHT22;16915;51.466;3.610;2022-12-07T11:54:17;8.00;99.90
30097;DHT22;16915;51.466;3.610;2022-12-07T11:56:44;8.50;99.90
30097;DHT22;16915;51.466;3.610;2022-12-07T11:59:12;9.00;99.90
30097;DHT22;16915;51.466;3.610;2022-12-07T12:01:48;9.20;99.90
30097;DHT22;16915;51.466;3.610;2022-12-07T12:07:00;8.50;99.90
30097;DHT22;16915;51.466;3.610;2022-12-07T12:09:28;8.00;99.90
30097;DHT22;16915;51.466;3.610;2022-12-07T12:17:22;7.10;99.90
30097;DHT22;16915;51.466;3.610;2022-12-07T12:25:18;7.20;99.90
30097;DHT22;16915;51.466;3.610;2022-12-07T12:27:45;7.80;99.90
30097;DHT22;16915;51.466;3.610;2022-12-07T12:33:42;8.40;99.90
30097;DHT22;16915;51.466;3.610;2022-12-07T12:35:43;8.30;99.90
30097;DHT22;16915;51.466;3.610;2022-12-07T12:38:25;8.10;99.90
30097;DHT22;16915;51.466;3.610;2022-12-07T12:40:52;7.90;99.90
30097;DHT22;16915;51.466;3.610;2022-12-07T12:48:52;7.20;99.90
30097;DHT22;16915;51.466;3.610;2022-12-07T12:51:36;7.00;99.90
30097;DHT22;16915;51.466;3.610;2022-12-07T12:54:04;6.90;99.90
30097;DHT22;16915;51.466;3.610;2022-12-07T12:56:41;6.80;99.90
30097;DHT22;16915;51.466;3.610;2022-12-07T13:01:46;6.60;99.90
30097;DHT22;16915;51.466;3.610;2022-12-07T13:04:26;6.50;99.90
30097;DHT22;16915;51.466;3.610;2022-12-07T13:06:53;6.50;99.90
30097;DHT22;16915;51.466;3.610;2022-12-07T13:09:28;6.50;99.90
30097;DHT22;16915;51.466;3.610;2022-12-07T13:11:58;6.50;99.90
30097;DHT22;16915;51.466;3.610;2022-12-07T13:14:41;6.50;99.90
30097;DHT22;16915;51.466;3.610;2022-12-07T13:17:11;6.40;99.90
30097;DHT22;16915;51.466;3.610;2022-12-07T13:27:37;6.50;99.90
30097;DHT22;16915;51.466;3.610;2022-12-07T13:30:14;6.50;99.90
30097;DHT22;16915;51.466;3.610;2022-12-07T13:32:40;6.60;99.90
30097;DHT22;16915;51.466;3.610;2022-12-07T13:37:51;6.60;99.90
30097;DHT22;16915;51.466;3.610;2022-12-07T13:40:18;6.60;99.90
30097;DHT22;16915;51.466;3.610;2022-12-07T13:42:44;6.60;99.90
30097;DHT22;16915;51.466;3.610;2022-12-07T13:45:22;6.60;99.90
30097;DHT22;16915;51.466;3.610;2022-12-07T13:48:09;6.60;99.90
30097;DHT22;16915;51.466;3.610;2022-12-07T13:50:39;6.50;99.90
30097;DHT22;16915;51.466;3.610;2022-12-07T13:53:07;6.40;99.90
30097;DHT22;16915;51.466;3.610;2022-12-07T13:55:38;6.40;99.90
30097;DHT22;16915;51.466;3.610;2022-12-07T13:58:09;6.30;99.90
30097;DHT22;16915;51.466;3.610;2022-12-07T14:00:35;6.30;99.90
30097;DHT22;16915;51.466;3.610;2022-12-07T14:05:26;6.10;99.90
30097;DHT22;16915;51.466;3.610;2022-12-07T14:07:53;6.00;99.90
30097;DHT22;16915;51.466;3.610;2022-12-07T14:10:33;6.00;99.90
30097;DHT22;16915;51.466;3.610;2022-12-07T14:13:00;6.00;99.90
30097;DHT22;16915;51.466;3.610;2022-12-07T14:15:34;6.00;99.90
30097;DHT22;16915;51.466;3.610;2022-12-07T14:18:00;6.10;99.90
30097;DHT22;16915;51.466;3.610;2022-12-07T14:20:33;6.20;99.90
30097;DHT22;16915;51.466;3.610;2022-12-07T14:22:59;6.30;99.90
30097;DHT22;16915;51.466;3.610;2022-12-07T14:25:27;6.30;99.90
30097;DHT22;16915;51.466;3.610;2022-12-07T14:30:23;6.60;99.90
30097;DHT22;16915;51.466;3.610;2022-12-07T14:33:07;6.60;99.90
30097;DHT22;16915;51.466;3.610;2022-12-07T14:35:34;6.60;99.90
30097;DHT22;16915;51.466;3.610;2022-12-07T14:38:02;6.20;99.90
30097;DHT22;16915;51.466;3.610;2022-12-07T14:40:28;6.00;99.90
30097;DHT22;16915;51.466;3.610;2022-12-07T14:42:58;5.80;99.90
30097;DHT22;16915;51.466;3.610;2022-12-07T14:45:25;5.60;99.90
30097;DHT22;16915;51.466;3.610;2022-12-07T14:47:50;5.60;99.90
30097;DHT22;16915;51.466;3.610;2022-12-07T14:50:18;5.50;99.90
30097;DHT22;16915;51.466;3.610;2022-12-07T14:52:46;5.50;99.90
30097;DHT22;16915;51.466;3.610;2022-12-07T14:55:14;5.40;99.90
30097;DHT22;16915;51.466;3.610;2022-12-07T14:57:41;5.20;99.90
30097;DHT22;16915;51.466;3.610;2022-12-07T15:00:07;5.20;99.90
30097;DHT22;16915;51.466;3.610;2022-12-07T15:02:34;5.10;99.90
30097;DHT22;16915;51.466;3.610;2022-12-07T15:04:59;5.10;99.90
30097;DHT22;16915;51.466;3.610;2022-12-07T15:07:25;5.10;99.90
30097;DHT22;16915;51.466;3.610;2022-12-07T15:09:51;5.10;99.90
30097;DHT22;16915;51.466;3.610;2022-12-07T15:12:17;5.20;99.90
30097;DHT22;16915;51.466;3.610;2022-12-07T15:14:42;5.20;99.90
30097;DHT22;16915;51.466;3.610;2022-12-07T15:17:09;5.20;99.90
30097;DHT22;16915;51.466;3.610;2022-12-07T15:19:35;5.20;99.90
30097;DHT22;16915;51.466;3.610;2022-12-07T15:22:01;5.20;99.90
30097;DHT22;16915;51.466;3.610;2022-12-07T15:24:26;5.20;99.90
30097;DHT22;16915;51.466;3.610;2022-12-07T15:26:52;5.20;99.90
30097;DHT22;16915;51.466;3.610;2022-12-07T15:29:17;5.20;99.90
30097;DHT22;16915;51.466;3.610;2022-12-07T15:31:43;5.20;99.90
30097;DHT22;16915;51.466;3.610;2022-12-07T15:34:08;5.20;99.90
30097;DHT22;16915;51.466;3.610;2022-12-07T15:36:34;5.20;99.90
30097;DHT22;16915;51.466;3.610;2022-12-07T15:39:00;5.20;99.90
30097;DHT22;16915;51.466;3.610;2022-12-07T15:41:26;5.20;99.90
30097;DHT22;16915;51.466;3.610;2022-12-07T15:43:51;5.10;99.90
30097;DHT22;16915;51.466;3.610;2022-12-07T15:46:37;5.00;99.90
30097;DHT22;16915;51.466;3.610;2022-12-07T15:49:02;5.00;99.90
30097;DHT22;16915;51.466;3.610;2022-12-07T15:51:28;4.90;99.90
30097;DHT22;16915;51.466;3.610;2022-12-07T15:53:56;4.80;99.90
30097;DHT22;16915;51.466;3.610;2022-12-07T15:56:22;4.80;99.90
30097;DHT22;16915;51.466;3.610;2022-12-07T15:58:48;4.70;99.90
30097;DHT22;16915;51.466;3.610;2022-12-07T16:01:14;4.60;99.90
30097;DHT22;16915;51.466;3.610;2022-12-07T16:03:39;4.50;99.90
30097;DHT22;16915;51.466;3.610;2022-12-07T16:06:05;4.40;99.90
30097;DHT22;16915;51.466;3.610;2022-12-07T16:08:31;4.40;99.90
30097;DHT22;16915;51.466;3.610;2022-12-07T16:10:56;4.30;99.90
30097;DHT22;16915;51.466;3.610;2022-12-07T16:13:22;4.30;99.90
30097;DHT22;16915;51.466;3.610;2022-12-07T16:15:47;4.30;99.90
30097;DHT22;16915;51.466;3.610;2022-12-07T16:18:13;4.20;99.90
30097;DHT22;16915;51.466;3.610;2022-12-07T16:20:38;4.30;99.90
30097;DHT22;16915;51.466;3.610;2022-12-07T16:23:04;4.20;99.90
30097;DHT22;16915;51.466;3.610;2022-12-07T16:25:30;4.30;99.90
30097;DHT22;16915;51.466;3.610;2022-12-07T16:27:55;4.30;99.90
30097;DHT22;16915;51.466;3.610;2022-12-07T16:30:21;4.40;99.90
30097;DHT22;16915;51.466;3.610;2022-12-07T16:32:46;4.60;99.90
30097;DHT22;16915;51.466;3.610;2022-12-07T16:35:13;4.70;99.90
30097;DHT22;16915;51.466;3.610;2022-12-07T16:37:41;4.80;99.90
30097;DHT22;16915;51.466;3.610;2022-12-07T16:40:06;4.80;99.90
30097;DHT22;16915;51.466;3.610;2022-12-07T16:42:32;4.80;99.90
30097;DHT22;16915;51.466;3.610;2022-12-07T16:44:58;4.90;99.90
30097;DHT22;16915;51.466;3.610;2022-12-07T16:47:24;4.90;99.90
30097;DHT22;16915;51.466;3.610;2022-12-07T16:49:49;4.90;99.90
30097;DHT22;16915;51.466;3.610;2022-12-07T16:52:16;4.90;99.90
30097;DHT22;16915;51.466;3.610;2022-12-07T16:54:41;4.90;99.90
30097;DHT22;16915;51.466;3.610;2022-12-07T16:57:06;4.90;99.90
30097;DHT22;16915;51.466;3.610;2022-12-07T16:59:32;4.90;99.90
30097;DHT22;16915;51.466;3.610;2022-12-07T17:01:57;4.80;99.90
30097;DHT22;16915;51.466;3.610;2022-12-07T17:04:23;4.80;99.90
30097;DHT22;16915;51.466;3.610;2022-12-07T17:06:48;4.90;99.90
30097;DHT22;16915;51.466;3.610;2022-12-07T17:09:14;4.90;99.90
30097;DHT22;16915;51.466;3.610;2022-12-07T17:11:39;4.90;99.90
30097;DHT22;16915;51.466;3.610;2022-12-07T17:14:08;4.90;99.90
30097;DHT22;16915;51.466;3.610;2022-12-07T17:16:52;4.90;99.90
30097;DHT22;16915;51.466;3.610;2022-12-07T17:19:18;4.90;99.90
30097;DHT22;16915;51.466;3.610;2022-12-07T17:21:43;4.90;99.90
30097;DHT22;16915;51.466;3.610;2022-12-07T17:24:11;4.90;99.90
30097;DHT22;16915;51.466;3.610;2022-12-07T17:26:37;4.90;99.90
30097;DHT22;16915;51.466;3.610;2022-12-07T17:29:03;4.80;99.90
30097;DHT22;16915;51.466;3.610;2022-12-07T17:31:29;4.80;99.90
30097;DHT22;16915;51.466;3.610;2022-12-07T17:33:55;4.70;99.90
30097;DHT22;16915;51.466;3.610;2022-12-07T17:36:21;4.70;99.90
30097;DHT22;16915;51.466;3.610;2022-12-07T17:38:48;4.60;99.90